Time;durP1;ratioP1;P1;durP2;ratioP2;P2;SDS_P1;SDS_P2;PMS_P1;PMS_P2;Temp;Humidity;BMP_temperature;BMP_pressure;BME280_temperature;BME280_humidity;BME280_pressure;Samples;Min_cycle;Max_cycle;Signal;HPM_P1;HPM_P2
2022/04/23 00:02:00;;;;;;;9.95;6.50;;;8.60;84.90;;;;;;4955471;28;20391;-73
2022/04/23 00:04:28;;;;;;;9.40;6.47;;;8.50;85.20;;;;;;4956549;28;20081;-72
2022/04/23 00:06:54;;;;;;;8.68;6.15;;;8.50;85.10;;;;;;4953933;28;20031;-72
2022/04/23 00:09:20;;;;;;;8.25;6.03;;;8.50;84.80;;;;;;4959707;28;20505;-73
2022/04/23 00:11:46;;;;;;;9.18;6.75;;;8.50;84.80;;;;;;4962817;28;20082;-72
2022/04/23 00:14:12;;;;;;;8.50;6.40;;;8.50;84.80;;;;;;4946057;28;20039;-70
2022/04/23 00:16:38;;;;;;;9.38;7.15;;;8.50;84.80;;;;;;4947105;28;20037;-72
2022/04/23 00:19:04;;;;;;;9.50;6.57;;;8.50;84.80;;;;;;4957596;28;20411;-73
2022/04/23 00:21:30;;;;;;;11.13;7.40;;;8.40;84.60;;;;;;4956993;28;20045;-72
2022/04/23 00:23:56;;;;;;;9.38;7.10;;;8.40;84.90;;;;;;4954153;28;20138;-73
2022/04/23 00:26:22;;;;;;;10.35;7.80;;;8.40;84.80;;;;;;4963208;28;20126;-72
2022/04/23 00:28:48;;;;;;;10.10;7.30;;;8.40;84.30;;;;;;4961848;28;20035;-73
2022/04/23 00:31:16;;;;;;;11.50;7.28;;;8.40;84.00;;;;;;4962236;28;20402;-73
2022/04/23 00:33:42;;;;;;;9.95;7.70;;;8.40;84.40;;;;;;4959771;28;20046;-73
2022/04/23 00:36:10;;;;;;;12.30;6.80;;;8.40;84.00;;;;;;4957601;28;20605;-71
2022/04/23 00:38:38;;;;;;;10.57;7.25;;;8.30;84.30;;;;;;4955733;28;20034;-71
2022/04/23 00:41:04;;;;;;;9.15;6.90;;;8.30;84.30;;;;;;4933924;28;20717;-71
2022/04/23 00:43:35;;;;;;;9.65;7.38;;;8.30;84.60;;;;;;4954444;28;20039;-73
2022/04/23 00:46:02;;;;;;;11.88;7.63;;;8.20;84.70;;;;;;4960415;28;20050;-73
2022/04/23 00:48:29;;;;;;;9.40;7.10;;;8.20;84.70;;;;;;4961022;28;20487;-73
2022/04/23 00:50:57;;;;;;;11.45;8.07;;;8.10;85.00;;;;;;4957157;28;20031;-73
2022/04/23 00:53:25;;;;;;;13.60;8.13;;;8.00;84.90;;;;;;4944483;28;20030;-73
2022/04/23 00:55:54;;;;;;;10.60;7.05;;;8.10;84.50;;;;;;4954458;28;20035;-73
2022/04/23 00:58:20;;;;;;;12.57;7.60;;;8.10;83.90;;;;;;4957235;28;20105;-72
2022/04/23 01:00:47;;;;;;;9.75;7.43;;;8.10;84.30;;;;;;4956648;28;20524;-73
2022/04/23 01:03:14;;;;;;;11.25;7.68;;;8.20;84.70;;;;;;4958393;28;20138;-73
2022/04/23 01:05:47;;;;;;;10.95;7.38;;;8.10;84.60;;;;;;4957372;28;20037;-72
2022/04/23 01:08:15;;;;;;;10.15;7.10;;;8.10;84.40;;;;;;4958170;28;20414;-73
2022/04/23 01:10:43;;;;;;;9.95;6.85;;;8.10;84.20;;;;;;4955067;28;20023;-73
2022/04/23 01:13:10;;;;;;;11.60;8.15;;;8.10;84.40;;;;;;4958180;28;20037;-72
2022/04/23 01:15:37;;;;;;;10.68;7.35;;;8.10;84.20;;;;;;4957942;28;20089;-72
2022/04/23 01:18:03;;;;;;;10.07;7.75;;;8.10;84.00;;;;;;4956083;28;20033;-73
2022/04/23 01:20:29;;;;;;;10.07;7.80;;;8.10;84.10;;;;;;4955351;28;20129;-72
2022/04/23 01:22:54;;;;;;;11.85;8.05;;;8.00;84.70;;;;;;4940842;28;20106;-73
2022/04/23 01:25:22;;;;;;;9.80;7.55;;;8.00;84.80;;;;;;4955737;28;20038;-73
2022/04/23 01:27:50;;;;;;;10.02;7.28;;;8.00;84.40;;;;;;4957589;28;20513;-73
2022/04/23 01:30:16;;;;;;;10.30;7.30;;;8.00;84.30;;;;;;4955213;28;20027;-73
2022/04/23 01:32:42;;;;;;;10.85;7.97;;;8.00;84.50;;;;;;4958944;28;20027;-73
2022/04/23 01:35:09;;;;;;;10.00;7.65;;;7.90;84.70;;;;;;4955586;28;20045;-73
2022/04/23 01:37:34;;;;;;;9.60;7.57;;;7.90;84.90;;;;;;4945344;28;20030;-72
2022/04/23 01:40:00;;;;;;;11.05;7.47;;;7.80;85.10;;;;;;4955111;28;20102;-73
2022/04/23 01:42:26;;;;;;;11.93;8.50;;;7.80;85.30;;;;;;4956130;28;20034;-73
2022/04/23 01:44:52;;;;;;;10.48;8.18;;;7.80;85.90;;;;;;4946191;28;20042;-72
2022/04/23 01:47:18;;;;;;;11.75;8.23;;;7.80;85.70;;;;;;4955638;28;20080;-73
2022/04/23 01:49:45;;;;;;;16.73;8.10;;;7.80;85.30;;;;;;4956315;28;20076;-73
2022/04/23 01:52:11;;;;;;;12.38;8.65;;;7.80;85.20;;;;;;4953463;28;20035;-73
2022/04/23 01:54:37;;;;;;;12.43;8.35;;;7.80;84.60;;;;;;4951744;28;20118;-72
2022/04/23 01:57:04;;;;;;;12.93;8.82;;;7.90;84.30;;;;;;4949270;28;20031;-73
2022/04/23 01:59:30;;;;;;;11.00;8.40;;;8.00;84.00;;;;;;4955158;28;20037;-73
2022/04/23 02:01:57;;;;;;;12.93;7.97;;;8.00;83.90;;;;;;4957558;28;20031;-72
2022/04/23 02:04:23;;;;;;;10.48;8.57;;;8.00;84.00;;;;;;4958375;28;20030;-72
2022/04/23 02:06:49;;;;;;;12.10;8.20;;;7.90;84.00;;;;;;4955510;28;20046;-73
2022/04/23 02:09:14;;;;;;;14.48;9.80;;;7.90;83.70;;;;;;4953649;28;20038;-72
2022/04/23 02:11:41;;;;;;;11.35;8.90;;;7.90;84.00;;;;;;4954770;28;20403;-72
2022/04/23 02:14:06;;;;;;;11.63;8.52;;;7.90;84.30;;;;;;4955713;28;20035;-72
2022/04/23 02:16:32;;;;;;;12.60;8.40;;;7.90;84.00;;;;;;4950711;28;20031;-73
2022/04/23 02:18:59;;;;;;;13.00;8.98;;;7.80;84.50;;;;;;4957312;28;20034;-72
2022/04/23 02:21:27;;;;;;;10.48;8.65;;;7.80;84.70;;;;;;4957894;28;20062;-72
2022/04/23 02:23:54;;;;;;;14.77;9.35;;;7.70;84.80;;;;;;4954056;28;20066;-73
2022/04/23 02:26:23;;;;;;;10.32;8.27;;;7.80;84.80;;;;;;4953103;28;20031;-72
2022/04/23 02:28:50;;;;;;;13.02;8.70;;;7.80;84.70;;;;;;4952520;28;20461;-72
2022/04/23 02:31:16;;;;;;;14.00;10.32;;;7.70;84.90;;;;;;4953724;28;20105;-73
2022/04/23 02:33:44;;;;;;;12.07;9.65;;;7.70;85.20;;;;;;4953181;28;20038;-72
2022/04/23 02:36:11;;;;;;;14.05;9.43;;;7.60;85.40;;;;;;4954273;28;20030;-72
2022/04/23 02:38:40;;;;;;;13.15;9.35;;;7.60;85.60;;;;;;4957491;28;20038;-72
2022/04/23 02:41:10;;;;;;;12.65;8.85;;;7.50;85.70;;;;;;4936825;28;20109;-72
2022/04/23 02:43:38;;;;;;;12.85;9.45;;;7.50;86.00;;;;;;4954633;28;20058;-72
2022/04/23 02:46:07;;;;;;;13.27;9.65;;;7.40;86.10;;;;;;4953486;28;20034;-72
2022/04/23 02:48:33;;;;;;;13.88;9.27;;;7.30;86.60;;;;;;4952573;28;20122;-72
2022/04/23 02:51:00;;;;;;;13.93;9.48;;;7.30;86.80;;;;;;4954090;28;20035;-74
2022/04/23 02:53:26;;;;;;;15.77;10.52;;;7.40;86.60;;;;;;4953410;28;20034;-72
2022/04/23 02:55:54;;;;;;;14.23;9.80;;;7.30;86.10;;;;;;4953105;28;20022;-73
2022/04/23 02:58:20;;;;;;;15.10;9.38;;;7.30;86.90;;;;;;4959454;28;20066;-72
2022/04/23 03:00:46;;;;;;;12.45;9.18;;;7.30;86.60;;;;;;4955145;28;20530;-72
2022/04/23 03:03:12;;;;;;;14.88;9.63;;;7.30;86.40;;;;;;4956856;28;20626;-72
2022/04/23 03:05:42;;;;;;;13.63;9.77;;;7.30;86.40;;;;;;4958486;28;20035;-72
2022/04/23 03:08:10;;;;;;;12.65;9.30;;;7.30;85.80;;;;;;4954518;28;20047;-73
2022/04/23 03:10:36;;;;;;;13.35;9.80;;;7.30;86.20;;;;;;4957209;28;20038;-72
2022/04/23 03:13:02;;;;;;;16.33;9.65;;;7.30;86.10;;;;;;4956877;28;20031;-73
2022/04/23 03:15:28;;;;;;;12.68;8.85;;;7.30;85.70;;;;;;4954324;28;20082;-72
2022/04/23 03:18:08;;;;;;;14.30;9.35;;;7.30;85.90;;;;;;4960031;28;20030;-72
2022/04/23 03:20:35;;;;;;;13.40;9.48;;;7.20;86.00;;;;;;4964242;28;20038;-72
2022/04/23 03:23:01;;;;;;;13.38;8.93;;;7.20;85.80;;;;;;4964291;28;20045;-72
2022/04/23 03:25:27;;;;;;;13.70;9.20;;;7.20;86.20;;;;;;4957360;28;20771;-72
2022/04/23 03:27:52;;;;;;;12.68;9.07;;;7.10;86.70;;;;;;4961243;28;20039;-72
2022/04/23 03:30:20;;;;;;;13.13;9.25;;;7.10;87.10;;;;;;4932415;28;20023;-72
2022/04/23 03:32:47;;;;;;;14.23;9.77;;;7.00;87.50;;;;;;4963223;28;20083;-73
2022/04/23 03:35:13;;;;;;;13.25;9.13;;;7.00;87.10;;;;;;4962047;28;20034;-73
2022/04/23 03:37:40;;;;;;;18.65;10.13;;;7.00;87.20;;;;;;4961649;28;20042;-73
2022/04/23 03:40:07;;;;;;;12.25;9.00;;;6.90;87.30;;;;;;4958405;28;20042;-72
2022/04/23 03:42:33;;;;;;;14.02;9.82;;;6.90;87.40;;;;;;4961142;28;20636;-72
2022/04/23 03:44:59;;;;;;;13.30;9.18;;;6.90;87.60;;;;;;4958306;28;20039;-72
2022/04/23 03:47:24;;;;;;;14.50;9.63;;;6.90;87.40;;;;;;4952981;28;20035;-72
2022/04/23 03:49:50;;;;;;;14.57;9.05;;;6.90;87.50;;;;;;4956748;28;20097;-72
2022/04/23 03:52:16;;;;;;;15.07;10.00;;;6.80;87.80;;;;;;4958050;28;20031;-72
2022/04/23 03:54:41;;;;;;;12.88;8.95;;;6.80;88.00;;;;;;4956318;28;20043;-72
2022/04/23 03:57:07;;;;;;;12.68;9.40;;;6.80;87.50;;;;;;4959330;28;20023;-72
2022/04/23 03:59:35;;;;;;;13.60;9.18;;;6.90;87.20;;;;;;4954893;28;20035;-73
2022/04/23 04:02:04;;;;;;;12.95;9.75;;;6.90;86.80;;;;;;4956391;28;20860;-72
2022/04/23 04:04:31;;;;;;;13.50;8.65;;;6.90;87.10;;;;;;4951473;28;20114;-72
2022/04/23 04:06:58;;;;;;;12.77;8.93;;;6.90;86.60;;;;;;4953767;28;20642;-72
2022/04/23 04:09:24;;;;;;;13.95;9.90;;;6.90;86.90;;;;;;4957047;28;20053;-72
2022/04/23 04:12:02;;;;;;;11.98;9.02;;;6.90;86.80;;;;;;4963300;28;20723;-72
2022/04/23 04:14:32;;;;;;;11.73;8.95;;;6.90;86.40;;;;;;4959098;28;20049;-72
2022/04/23 04:17:07;;;;;;;14.10;10.02;;;7.00;86.10;;;;;;4957843;28;20027;-72
2022/04/23 04:19:33;;;;;;;11.80;8.50;;;7.00;85.60;;;;;;4955482;28;20035;-72
2022/04/23 04:22:02;;;;;;;16.23;9.80;;;7.10;85.50;;;;;;4960616;28;20027;-72
2022/04/23 04:24:28;;;;;;;13.30;9.30;;;7.10;85.50;;;;;;4956467;28;20034;-72
2022/04/23 04:26:54;;;;;;;13.50;9.02;;;7.10;85.10;;;;;;4952858;28;20125;-72
2022/04/23 04:29:20;;;;;;;12.80;9.10;;;7.20;84.80;;;;;;4955529;28;20037;-72
2022/04/23 04:31:49;;;;;;;13.73;9.10;;;7.20;85.10;;;;;;4954019;28;20035;-72
2022/04/23 04:34:20;;;;;;;14.10;9.30;;;7.20;84.90;;;;;;4958295;28;20049;-73
2022/04/23 04:36:48;;;;;;;13.18;9.48;;;7.30;84.40;;;;;;4959696;28;20030;-72
2022/04/23 04:39:18;;;;;;;12.38;8.98;;;7.30;84.60;;;;;;4960183;28;20051;-72
2022/04/23 04:41:44;;;;;;;12.27;9.50;;;7.30;84.90;;;;;;4959601;28;20046;-72
2022/04/23 04:44:10;;;;;;;15.23;9.65;;;7.30;84.70;;;;;;4959724;28;20366;-72
2022/04/23 04:46:38;;;;;;;12.68;8.68;;;7.30;84.90;;;;;;4959985;28;20035;-72
2022/04/23 04:49:04;;;;;;;13.75;9.10;;;7.30;84.70;;;;;;4960318;28;20101;-72
2022/04/23 04:51:31;;;;;;;13.55;9.02;;;7.40;84.20;;;;;;4956298;28;20042;-72
2022/04/23 04:53:57;;;;;;;12.18;8.55;;;7.40;83.70;;;;;;4960200;28;20402;-73
2022/04/23 04:56:23;;;;;;;11.15;8.70;;;7.50;84.00;;;;;;4960174;28;20130;-72
2022/04/23 04:58:49;;;;;;;12.88;8.35;;;7.60;83.60;;;;;;4958569;28;20030;-72
2022/04/23 05:01:15;;;;;;;12.35;8.38;;;7.70;83.10;;;;;;4961287;28;20095;-72
2022/04/23 05:03:42;;;;;;;10.68;8.15;;;7.70;82.60;;;;;;4957799;28;20399;-72
2022/04/23 05:06:11;;;;;;;11.43;7.88;;;7.80;82.60;;;;;;4958773;28;20113;-73
2022/04/23 05:08:38;;;;;;;14.30;9.43;;;7.90;82.70;;;;;;4960325;28;20037;-72
2022/04/23 05:11:05;;;;;;;11.48;8.38;;;8.00;81.50;;;;;;4954247;28;20034;-72
2022/04/23 05:13:31;;;;;;;11.90;8.50;;;8.10;81.40;;;;;;4961562;28;20037;-73
2022/04/23 05:15:58;;;;;;;13.75;8.05;;;8.20;80.30;;;;;;4958991;28;20491;-73
2022/04/23 05:18:23;;;;;;;11.18;8.15;;;8.30;79.90;;;;;;4956152;28;20126;-72
2022/04/23 05:20:49;;;;;;;12.43;8.38;;;8.50;79.80;;;;;;4959033;28;20042;-72
2022/04/23 05:23:15;;;;;;;13.10;7.28;;;8.80;78.10;;;;;;4958541;28;20052;-72
2022/04/23 05:25:41;;;;;;;11.00;7.88;;;9.10;77.20;;;;;;4962028;28;20038;-73
2022/04/23 05:28:07;;;;;;;11.13;8.25;;;9.50;76.50;;;;;;4960567;28;20102;-72
2022/04/23 05:30:37;;;;;;;10.15;7.78;;;9.90;74.30;;;;;;4961693;28;20027;-74
2022/04/23 05:33:04;;;;;;;11.15;8.45;;;10.30;72.90;;;;;;4957139;28;20959;-74
2022/04/23 05:35:30;;;;;;;10.00;7.53;;;10.90;71.00;;;;;;4953072;28;20031;-74
2022/04/23 05:37:55;;;;;;;10.82;7.60;;;11.90;66.50;;;;;;4958406;28;20380;-74
2022/04/23 05:40:21;;;;;;;8.88;6.95;;;12.60;62.50;;;;;;4955705;28;20030;-74
2022/04/23 05:42:47;;;;;;;9.10;7.30;;;13.20;61.10;;;;;;4956179;28;20155;-74
2022/04/23 05:45:13;;;;;;;8.60;6.88;;;14.20;57.70;;;;;;4942562;28;20027;-74
2022/04/23 05:47:42;;;;;;;9.05;7.00;;;15.30;56.10;;;;;;4955621;28;20407;-74
2022/04/23 05:50:09;;;;;;;7.53;6.18;;;16.00;53.00;;;;;;4940906;28;20034;-74
2022/04/23 05:52:37;;;;;;;7.90;6.65;;;16.60;52.20;;;;;;4953991;28;20042;-74
2022/04/23 05:55:07;;;;;;;7.45;6.38;;;17.60;49.60;;;;;;4951145;28;20330;-72
2022/04/23 05:57:33;;;;;;;8.43;6.63;;;18.50;46.10;;;;;;4956595;28;20122;-75
2022/04/23 05:59:58;;;;;;;6.93;5.82;;;19.30;44.00;;;;;;4954344;28;20126;-72
2022/04/23 06:02:24;;;;;;;7.57;6.25;;;20.00;43.00;;;;;;4954188;28;20742;-72
2022/04/23 06:04:50;;;;;;;7.50;6.32;;;20.80;40.30;;;;;;4956726;28;20027;-72
2022/04/23 06:07:16;;;;;;;9.30;6.38;;;21.60;39.50;;;;;;4954700;28;20051;-74
2022/04/23 06:09:42;;;;;;;7.40;6.70;;;22.30;38.30;;;;;;4952276;28;20075;-72
2022/04/23 06:12:08;;;;;;;6.95;6.18;;;22.50;37.20;;;;;;4957784;28;20144;-72
2022/04/23 06:14:34;;;;;;;7.20;5.45;;;22.20;36.60;;;;;;4958713;28;20050;-73
2022/04/23 06:17:00;;;;;;;7.22;5.65;;;22.00;37.00;;;;;;4959651;28;20068;-72
2022/04/23 06:19:26;;;;;;;6.72;5.35;;;22.60;35.90;;;;;;4959702;28;20027;-72
2022/04/23 06:21:51;;;;;;;6.63;5.53;;;23.70;34.10;;;;;;4956909;28;20437;-72
2022/04/23 06:24:17;;;;;;;7.88;5.75;;;24.50;32.70;;;;;;4959187;28;20034;-72
2022/04/23 06:26:43;;;;;;;6.25;5.35;;;25.30;32.70;;;;;;4956347;28;20839;-72
2022/04/23 06:29:08;;;;;;;6.30;5.28;;;26.30;31.50;;;;;;4958506;28;20071;-72
2022/04/23 06:31:34;;;;;;;8.30;5.45;;;26.50;30.30;;;;;;4955843;28;20032;-72
2022/04/23 06:33:59;;;;;;;5.97;5.38;;;25.30;30.70;;;;;;4960248;28;20058;-72
2022/04/23 06:36:25;;;;;;;11.90;6.32;;;25.10;31.40;;;;;;4954875;28;20034;-72
2022/04/23 06:38:53;;;;;;;6.25;5.10;;;25.60;30.30;;;;;;4953429;28;20039;-73
2022/04/23 06:41:18;;;;;;;6.22;5.63;;;26.30;30.00;;;;;;4953659;28;20053;-73
2022/04/23 06:43:44;;;;;;;5.38;4.68;;;27.20;29.30;;;;;;4961230;28;20478;-73
2022/04/23 06:46:10;;;;;;;6.65;5.47;;;28.40;28.60;;;;;;4959337;28;20054;-72
2022/04/23 06:48:35;;;;;;;5.03;4.50;;;28.40;28.30;;;;;;4953328;28;20031;-70
2022/04/23 06:51:01;;;;;;;6.72;5.40;;;28.10;27.80;;;;;;4952257;28;20483;-72
2022/04/23 06:53:27;;;;;;;5.13;4.55;;;25.90;28.60;;;;;;4958770;28;20031;-73
2022/04/23 06:55:52;;;;;;;6.95;5.63;;;24.10;30.90;;;;;;4946484;28;20031;-73
2022/04/23 06:58:18;;;;;;;6.88;5.03;;;24.80;30.60;;;;;;4965071;28;20808;-72
2022/04/23 07:00:44;;;;;;;6.53;5.18;;;25.40;29.70;;;;;;4943462;28;20031;-73
2022/04/23 07:03:10;;;;;;;6.93;4.95;;;25.70;29.50;;;;;;4961476;28;20524;-75
2022/04/23 07:05:35;;;;;;;6.05;4.85;;;26.70;28.70;;;;;;4954583;28;20043;-74
2022/04/23 07:08:02;;;;;;;5.20;4.70;;;26.80;28.70;;;;;;4956750;28;20039;-71
2022/04/23 07:10:30;;;;;;;5.07;4.20;;;27.20;28.90;;;;;;4961141;28;20031;-70
2022/04/23 07:12:57;;;;;;;5.05;4.55;;;26.20;29.70;;;;;;4954316;28;20057;-75
2022/04/23 07:15:24;;;;;;;4.70;4.20;;;25.30;29.70;;;;;;4953596;28;20034;-75
2022/04/23 07:17:51;;;;;;;6.63;4.10;;;24.20;31.40;;;;;;4956815;28;20495;-77
2022/04/23 07:20:18;;;;;;;4.82;4.18;;;24.00;31.70;;;;;;4955623;28;20034;-76
2022/04/23 07:24:03;;;;;;;5.25;3.90;;;24.10;30.80;;;;;;4955402;28;20042;-76
2022/04/23 07:25:31;;;;;;;6.47;3.53;;;24.00;30.70;;;;;;4960358;28;20035;-79
2022/04/23 07:27:58;;;;;;;6.15;3.83;;;24.50;30.00;;;;;;4957220;28;20644;-77
2022/04/23 07:30:25;;;;;;;5.90;4.18;;;26.50;28.70;;;;;;4959071;28;20047;-77
2022/04/23 07:32:55;;;;;;;4.57;3.65;;;29.20;26.90;;;;;;4953936;28;20046;-77
2022/04/23 07:38:23;;;;;;;6.70;4.20;;;30.90;25.40;;;;;;4953464;28;20034;-75
2022/04/23 07:40:51;;;;;;;5.43;3.92;;;29.30;25.80;;;;;;4961062;28;20211;-76
2022/04/23 07:43:18;;;;;;;5.25;3.55;;;27.50;27.50;;;;;;4949824;28;20554;-68
2022/04/23 07:45:46;;;;;;;4.35;3.90;;;27.10;28.40;;;;;;4957626;28;20098;-73
2022/04/23 07:48:13;;;;;;;4.88;3.50;;;27.10;27.80;;;;;;4958158;28;20117;-73
2022/04/23 07:50:40;;;;;;;4.38;3.35;;;26.90;27.30;;;;;;4955745;28;20129;-73
2022/04/23 07:53:07;;;;;;;3.95;3.47;;;27.20;27.50;;;;;;4957966;28;20042;-74
2022/04/23 07:55:36;;;;;;;5.07;3.58;;;27.30;27.20;;;;;;4955502;28;20069;-74
2022/04/23 07:58:06;;;;;;;3.40;3.10;;;27.10;27.60;;;;;;4949509;28;20031;-74
2022/04/23 08:00:34;;;;;;;4.82;3.47;;;26.80;27.60;;;;;;4959313;28;20034;-76
2022/04/23 08:03:03;;;;;;;3.78;3.30;;;27.00;27.50;;;;;;4960570;28;20451;-74
2022/04/23 08:05:29;;;;;;;3.20;2.90;;;26.10;28.00;;;;;;4960420;28;20058;-74
2022/04/23 08:07:55;;;;;;;3.65;3.03;;;25.50;28.90;;;;;;4958355;28;20118;-74
2022/04/23 08:10:21;;;;;;;4.18;3.25;;;24.40;29.10;;;;;;4957768;28;20019;-74
2022/04/23 08:12:47;;;;;;;4.63;3.30;;;24.60;29.10;;;;;;4960154;28;20050;-76
2022/04/23 08:15:13;;;;;;;4.38;3.50;;;24.10;29.30;;;;;;4954583;28;20113;-74
2022/04/23 08:17:39;;;;;;;4.13;3.55;;;23.40;30.80;;;;;;4963072;28;20125;-74
2022/04/23 08:20:06;;;;;;;5.68;4.07;;;21.90;32.30;;;;;;4959735;28;20687;-71
2022/04/23 08:22:32;;;;;;;4.50;3.47;;;21.00;33.70;;;;;;4959120;28;20073;-72
2022/04/23 08:24:58;;;;;;;3.70;3.40;;;21.50;34.10;;;;;;4960127;28;20118;-72
2022/04/23 08:27:23;;;;;;;4.22;3.55;;;21.60;33.40;;;;;;4958734;28;20562;-72
2022/04/23 08:32:36;;;;;;;4.13;3.72;;;24.10;30.10;;;;;;4949153;28;20070;-73
2022/04/23 08:35:04;;;;;;;3.67;3.38;;;25.30;29.30;;;;;;4954238;28;20059;-73
2022/04/23 08:37:30;;;;;;;3.42;3.08;;;24.90;29.40;;;;;;4958763;28;20495;-73
2022/04/23 08:39:55;;;;;;;3.67;2.90;;;25.40;29.20;;;;;;4958345;28;20042;-73
2022/04/23 08:42:21;;;;;;;6.13;3.30;;;25.30;29.30;;;;;;4955930;28;20034;-73
2022/04/23 08:44:47;;;;;;;4.10;3.70;;;25.60;28.80;;;;;;4952376;28;20554;-72
2022/04/23 08:47:13;;;;;;;4.82;4.15;;;25.60;28.30;;;;;;4951888;28;20784;-73
2022/04/23 08:49:42;;;;;;;4.68;3.67;;;27.40;27.30;;;;;;4952651;28;20031;-72
2022/04/23 08:52:28;;;;;;;5.03;3.58;;;28.70;26.20;;;;;;4951992;28;20035;-72
2022/04/23 08:54:54;;;;;;;3.97;3.67;;;30.10;25.30;;;;;;4937354;28;20526;-73
2022/04/23 08:57:20;;;;;;;6.32;3.88;;;28.30;26.20;;;;;;4958697;28;20212;-73
2022/04/23 08:59:51;;;;;;;4.22;3.83;;;27.80;27.30;;;;;;4957684;28;20030;-73
2022/04/23 09:02:17;;;;;;;4.55;4.15;;;27.50;27.60;;;;;;4955067;28;20041;-73
2022/04/23 09:04:44;;;;;;;4.22;3.35;;;29.30;26.00;;;;;;4957690;28;20038;-73
2022/04/23 09:07:36;;;;;;;4.40;4.00;;;30.20;25.60;;;;;;4954964;28;20039;-73
2022/04/23 09:10:03;;;;;;;5.10;4.40;;;29.20;25.60;;;;;;4927826;28;20082;-73
2022/04/23 09:12:30;;;;;;;5.20;4.03;;;29.50;26.00;;;;;;4959188;28;20046;-74
2022/04/23 09:23:39;;;;;;;4.07;3.67;;;29.40;25.90;;;;;;4923509;28;20050;-75
2022/04/23 09:23:41;;;;;;;8.48;5.40;;;31.50;24.80;;;;;;4955295;28;20035;-75
2022/04/23 09:26:17;;;;;;;5.78;4.60;;;32.70;24.10;;;;;;4953796;28;20062;-75
2022/04/23 09:28:48;;;;;;;5.85;4.47;;;33.40;23.50;;;;;;4955829;28;20561;-75
2022/04/23 09:31:15;;;;;;;5.22;4.72;;;33.60;23.20;;;;;;4952003;28;20086;-75
2022/04/23 09:33:51;;;;;;;6.80;4.90;;;31.80;24.50;;;;;;4953329;28;20062;-75
2022/04/23 09:36:18;;;;;;;5.78;4.82;;;29.10;25.60;;;;;;4952284;28;20027;-70
2022/04/23 09:38:43;;;;;;;7.45;5.32;;;28.40;26.10;;;;;;4957547;28;20034;-75
2022/04/23 09:41:20;;;;;;;7.35;4.70;;;29.40;26.10;;;;;;4954758;28;20034;-76
2022/04/23 09:43:50;;;;;;;4.95;4.45;;;29.40;25.10;;;;;;4957511;28;20837;-75
2022/04/23 09:46:16;;;;;;;5.10;4.60;;;27.10;26.80;;;;;;4957189;28;20513;-76
2022/04/23 09:48:43;;;;;;;5.18;4.65;;;24.50;29.70;;;;;;4955553;28;20074;-75
2022/04/23 09:51:24;;;;;;;6.20;4.22;;;23.00;30.80;;;;;;4958301;28;20585;-75
2022/04/23 09:53:53;;;;;;;5.57;4.00;;;24.70;29.80;;;;;;4956219;28;20717;-76
2022/04/23 09:56:26;;;;;;;5.18;4.38;;;25.80;29.00;;;;;;4951340;28;20035;-75
2022/04/23 09:58:52;;;;;;;5.25;4.00;;;25.80;28.20;;;;;;4954485;28;20585;-75
2022/04/23 10:01:20;;;;;;;4.20;3.80;;;26.80;27.10;;;;;;4951265;28;20035;-75
2022/04/23 10:03:52;;;;;;;5.32;4.53;;;26.10;27.60;;;;;;4949549;28;20038;-75
2022/04/23 10:06:20;;;;;;;5.03;4.00;;;26.90;26.60;;;;;;4952409;28;20030;-75
2022/04/23 10:08:51;;;;;;;5.45;4.03;;;29.00;25.70;;;;;;4919592;28;20045;-75
2022/04/23 10:11:31;;;;;;;4.57;4.03;;;28.40;25.40;;;;;;4954308;28;20026;-75
2022/04/23 10:14:06;;;;;;;5.72;4.30;;;29.20;25.50;;;;;;4953651;28;20122;-75
2022/04/23 10:16:33;;;;;;;10.00;4.90;;;29.50;25.50;;;;;;4953748;28;20031;-76
2022/04/23 10:19:01;;;;;;;4.68;4.00;;;30.20;24.90;;;;;;4937089;28;20034;-75
2022/04/23 10:21:34;;;;;;;4.72;3.85;;;30.90;24.70;;;;;;4955093;28;20384;-75
2022/04/23 10:24:13;;;;;;;4.30;3.78;;;29.10;25.20;;;;;;4953970;28;20038;-75
2022/04/23 10:26:51;;;;;;;5.00;3.97;;;26.70;26.50;;;;;;4954546;28;20410;-75
2022/04/23 10:29:23;;;;;;;4.80;4.25;;;25.30;28.00;;;;;;4958993;28;20041;-75
2022/04/23 10:32:10;;;;;;;4.75;3.50;;;24.90;28.40;;;;;;4961122;28;20027;-75
2022/04/23 10:34:37;;;;;;;4.88;4.38;;;25.80;27.40;;;;;;4956094;28;20110;-75
2022/04/23 10:37:20;;;;;;;4.28;3.88;;;26.70;27.30;;;;;;4953818;28;20055;-75
2022/04/23 10:39:52;;;;;;;4.68;4.22;;;27.20;26.80;;;;;;4955213;28;20041;-75
2022/04/23 10:42:19;;;;;;;5.03;4.05;;;26.00;28.80;;;;;;4942826;28;20124;-75
2022/04/23 10:44:48;;;;;;;5.00;4.50;;;24.70;29.30;;;;;;4955269;28;20045;-75
2022/04/23 10:47:30;;;;;;;5.47;4.43;;;24.80;29.10;;;;;;4956712;28;20027;-74
2022/04/23 10:50:12;;;;;;;4.47;4.07;;;25.50;28.20;;;;;;4956051;28;20078;-75
2022/04/23 10:52:38;;;;;;;4.38;3.67;;;26.10;28.50;;;;;;4954567;28;20031;-75
2022/04/23 10:55:04;;;;;;;6.53;4.30;;;28.30;26.80;;;;;;4943623;28;20049;-75
2022/04/23 10:57:29;;;;;;;5.00;4.20;;;31.40;25.50;;;;;;4957126;28;20035;-75
2022/04/23 10:59:55;;;;;;;4.10;3.70;;;32.60;23.60;;;;;;4955677;28;20061;-74
2022/04/23 11:02:21;;;;;;;4.38;3.85;;;31.70;24.20;;;;;;4956852;28;20031;-75
2022/04/23 11:14:26;;;;;;;5.07;4.10;;;23.20;31.20;;;;;;4959679;28;20035;-76
2022/04/23 11:16:55;;;;;;;4.30;3.80;;;22.40;33.10;;;;;;4957812;28;20051;-76
2022/04/23 11:19:21;;;;;;;6.45;4.25;;;21.70;33.10;;;;;;4956030;28;20035;-76
2022/04/23 11:21:47;;;;;;;4.35;3.55;;;21.30;34.30;;;;;;4956170;28;20031;-76
2022/04/23 11:24:15;;;;;;;5.25;3.90;;;21.60;33.40;;;;;;4957975;28;20383;-76
2022/04/23 11:26:46;;;;;;;4.63;4.22;;;21.60;32.40;;;;;;4958644;28;20050;-76
2022/04/23 11:29:13;;;;;;;4.95;3.90;;;21.80;32.60;;;;;;4957652;28;20046;-76
2022/04/23 11:31:40;;;;;;;3.40;3.10;;;22.00;32.60;;;;;;4959600;28;20753;-76
2022/04/23 11:34:06;;;;;;;4.43;3.00;;;21.80;32.90;;;;;;4960012;28;20058;-76
2022/04/23 11:36:34;;;;;;;4.50;3.20;;;21.60;33.00;;;;;;4954400;28;20639;-77
2022/04/23 11:39:10;;;;;;;4.05;2.80;;;21.20;31.90;;;;;;4951056;28;20035;-76
2022/04/23 11:41:43;;;;;;;3.58;3.00;;;20.90;32.40;;;;;;4955726;28;20035;-76
2022/04/23 11:44:20;;;;;;;3.30;2.80;;;20.50;33.20;;;;;;4954913;28;20093;-76
2022/04/23 11:46:48;;;;;;;3.13;2.83;;;20.20;33.40;;;;;;4953675;28;20035;-76
2022/04/23 11:49:30;;;;;;;2.80;2.60;;;20.20;33.70;;;;;;4957177;28;20037;-76
2022/04/23 11:52:24;;;;;;;3.35;3.00;;;20.10;33.80;;;;;;4957521;28;20035;-77
2022/04/23 11:54:51;;;;;;;3.20;2.90;;;19.70;34.50;;;;;;4949771;28;20126;-76
2022/04/23 11:57:19;;;;;;;4.18;3.08;;;19.40;34.80;;;;;;4957828;28;20038;-76
2022/04/23 11:59:51;;;;;;;3.60;3.30;;;19.00;35.50;;;;;;4957084;28;20039;-75
2022/04/23 12:02:18;;;;;;;6.32;3.20;;;19.10;36.50;;;;;;4957467;28;20031;-77
2022/04/23 12:04:45;;;;;;;4.22;3.30;;;19.40;36.40;;;;;;4956081;28;20118;-77
2022/04/23 12:07:12;;;;;;;3.42;3.08;;;19.50;36.50;;;;;;4959320;28;20127;-75
2022/04/23 12:10:00;;;;;;;3.50;3.20;;;19.80;35.30;;;;;;4953205;28;20398;-77
2022/04/23 12:12:28;;;;;;;3.40;3.10;;;20.20;34.90;;;;;;4937415;28;20035;-74
2022/04/23 12:15:08;;;;;;;3.30;3.00;;;20.50;33.50;;;;;;4956124;28;20034;-75
2022/04/23 12:17:45;;;;;;;3.50;3.17;;;20.60;33.20;;;;;;4952626;28;20022;-76
2022/04/23 12:20:14;;;;;;;4.40;3.28;;;20.30;33.20;;;;;;4954720;28;20039;-75
2022/04/23 12:22:41;;;;;;;3.80;3.00;;;20.00;34.40;;;;;;4953502;28;20023;-76
2022/04/23 12:25:16;;;;;;;3.90;3.50;;;20.10;34.80;;;;;;4956899;28;20035;-76
2022/04/23 12:42:03;;;;;;;3.78;2.85;;;19.80;35.30;;;;;;4950015;28;20916;-76
2022/04/23 12:44:44;;;;;;;3.10;2.80;;;19.50;34.70;;;;;;4956221;28;20045;-76
2022/04/23 12:47:16;;;;;;;3.30;3.00;;;19.10;35.30;;;;;;4958571;28;20432;-76
2022/04/23 12:49:56;;;;;;;2.80;2.60;;;19.20;35.00;;;;;;4950626;28;20043;-75
2022/04/23 12:52:21;;;;;;;3.00;2.70;;;19.20;35.40;;;;;;4956319;28;20031;-76
2022/04/23 12:55:15;;;;;;;3.88;3.47;;;19.20;35.00;;;;;;4958169;28;20398;-75
2022/04/23 12:57:52;;;;;;;3.08;2.78;;;19.00;34.40;;;;;;4953591;28;20500;-76
2022/04/23 13:00:23;;;;;;;3.80;3.05;;;19.00;35.50;;;;;;4940519;28;20495;-76
2022/04/23 13:02:57;;;;;;;3.50;3.20;;;19.00;34.90;;;;;;4956817;28;20818;-76
2022/04/23 13:05:23;;;;;;;3.17;2.88;;;19.10;35.30;;;;;;4956108;28;20045;-76
2022/04/23 13:10:35;;;;;;;3.13;2.83;;;19.30;35.20;;;;;;4957962;28;20035;-75
2022/04/23 13:13:01;;;;;;;3.42;3.13;;;19.20;35.30;;;;;;4955652;28;20027;-75
2022/04/23 13:15:28;;;;;;;3.58;2.90;;;19.10;35.80;;;;;;4953403;28;20035;-75
2022/04/23 13:17:54;;;;;;;4.95;2.95;;;19.20;36.70;;;;;;4954161;28;20413;-76
2022/04/23 13:20:20;;;;;;;4.82;3.00;;;18.90;36.10;;;;;;4959032;28;20038;-75
2022/04/23 13:22:47;;;;;;;6.30;2.80;;;18.80;36.90;;;;;;4958029;28;20117;-76
2022/04/23 13:25:15;;;;;;;3.25;2.85;;;18.90;36.10;;;;;;4958369;28;20039;-75
2022/04/23 13:27:41;;;;;;;4.53;2.92;;;18.90;35.00;;;;;;4941526;28;20038;-77
2022/04/23 13:30:08;;;;;;;3.75;3.17;;;19.00;36.00;;;;;;4953714;28;20023;-78
2022/04/23 13:32:39;;;;;;;3.80;3.17;;;19.10;36.00;;;;;;4951565;28;20046;-76